Time;durP1;ratioP1;P1;durP2;ratioP2;P2;SDS_P1;SDS_P2;PMS_P1;PMS_P2;Temp;Humidity;BMP_temperature;BMP_pressure;BME280_temperature;BME280_humidity;BME280_pressure;Samples;Min_cycle;Max_cycle;Signal;HPM_P1;HPM_P2
2021/04/29 00:02:06;;;;;;;10.23;8.68;;;;;;;14.05;22.57;99777.22;5039335;27;96997;-69
2021/04/29 00:04:34;;;;;;;11.80;9.65;;;;;;;14.08;22.45;99770.94;5008102;28;97735;-69
2021/04/29 00:07:02;;;;;;;9.90;8.88;;;;;;;14.06;22.54;99762.94;5006678;28;98001;-69
2021/04/29 00:09:28;;;;;;;9.70;8.70;;;;;;;14.07;22.45;99759.38;5005636;28;99762;-70
2021/04/29 00:11:55;;;;;;;12.20;8.90;;;;;;;14.07;22.61;99763.81;5006933;28;96891;-69
2021/04/29 00:14:24;;;;;;;9.27;8.35;;;;;;;14.09;22.76;99773.63;5039509;27;97245;-69
2021/04/29 00:16:50;;;;;;;9.15;8.13;;;;;;;14.10;22.72;99770.03;5005810;28;97704;-70
2021/04/29 00:19:18;;;;;;;9.30;8.38;;;;;;;14.12;22.84;99778.94;5038643;27;98451;-69
2021/04/29 00:21:45;;;;;;;9.98;8.98;;;;;;;14.03;23.02;99788.81;5040145;27;97313;-69
2021/04/29 00:24:11;;;;;;;10.48;9.35;;;;;;;13.96;23.05;99788.00;5022158;27;96929;-69
2021/04/29 00:26:38;;;;;;;9.73;8.75;;;;;;;13.93;23.13;99782.66;5019605;27;97415;-68
2021/04/29 00:29:05;;;;;;;11.25;8.65;;;;;;;13.90;23.18;99803.19;5005686;28;98258;-69
2021/04/29 00:31:32;;;;;;;12.85;9.23;;;;;;;13.81;23.17;99800.59;5022202;27;98861;-68
2021/04/29 00:33:59;;;;;;;11.05;9.88;;;;;;;13.73;23.24;99791.72;5006919;28;97964;-69
2021/04/29 00:36:28;;;;;;;13.05;9.25;;;;;;;13.70;23.36;99795.28;5009839;28;97813;-70
2021/04/29 00:38:55;;;;;;;9.73;8.77;;;;;;;13.68;23.33;99791.75;5010633;27;97675;-69
2021/04/29 00:41:21;;;;;;;11.32;10.10;;;;;;;13.69;23.27;99790.88;4989134;28;98923;-70
2021/04/29 00:43:48;;;;;;;11.43;8.85;;;;;;;13.71;23.39;99786.41;5004165;28;96989;-69
2021/04/29 00:46:15;;;;;;;12.75;9.40;;;;;;;13.75;23.22;99774.75;5039269;27;100423;-69
2021/04/29 00:48:43;;;;;;;10.30;8.95;;;;;;;13.81;23.24;99777.44;5005650;28;96944;-70
2021/04/29 00:51:11;;;;;;;10.32;9.07;;;;;;;13.84;23.24;99771.19;5005486;27;98876;-69
2021/04/29 00:53:39;;;;;;;11.02;9.52;;;;;;;13.86;23.36;99770.25;5006787;28;97090;-69
2021/04/29 00:56:07;;;;;;;11.48;8.60;;;;;;;13.85;23.21;99768.47;5006285;28;99485;-69
2021/04/29 00:58:34;;;;;;;11.27;9.13;;;;;;;13.88;23.35;99768.44;5004724;28;99202;-69
2021/04/29 01:01:01;;;;;;;12.10;9.90;;;;;;;13.92;23.36;99764.84;4988334;28;97115;-69
2021/04/29 01:03:32;;;;;;;12.38;9.13;;;;;;;13.95;23.33;99770.16;5006822;28;97658;-68
2021/04/29 01:06:06;;;;;;;9.15;8.30;;;;;;;13.94;23.36;99762.16;5038424;27;97617;-69
2021/04/29 01:08:40;;;;;;;13.23;9.52;;;;;;;13.96;23.34;99769.28;5003913;28;98704;-70
2021/04/29 01:11:11;;;;;;;13.85;9.23;;;;;;;13.95;23.43;99754.13;5005164;28;97024;-69
2021/04/29 01:13:39;;;;;;;10.30;9.25;;;;;;;13.98;23.38;99767.47;5022233;27;96947;-69
2021/04/29 01:16:06;;;;;;;14.07;9.95;;;;;;;13.97;23.30;99767.47;5004065;28;97340;-68
2021/04/29 01:18:34;;;;;;;12.00;8.98;;;;;;;13.91;23.47;99757.75;5004852;28;99301;-69
2021/04/29 01:21:05;;;;;;;12.20;10.07;;;;;;;13.88;23.51;99770.22;5038726;27;97003;-69
2021/04/29 01:23:43;;;;;;;10.98;9.73;;;;;;;13.83;23.29;99764.94;5006745;28;97384;-70
2021/04/29 01:26:14;;;;;;;11.35;10.10;;;;;;;13.77;23.54;99759.59;5004579;28;99206;-71
2021/04/29 01:28:42;;;;;;;10.75;9.60;;;;;;;13.75;23.42;99769.41;5038587;27;99696;-69
2021/04/29 01:31:11;;;;;;;14.70;9.73;;;;;;;13.73;23.51;99767.66;5004353;28;97095;-70
2021/04/29 01:33:40;;;;;;;12.00;9.00;;;;;;;13.71;23.50;99769.47;5037269;27;97804;-70
2021/04/29 01:36:08;;;;;;;10.75;9.65;;;;;;;13.65;23.64;99770.41;5004200;28;99800;-68
2021/04/29 01:38:35;;;;;;;12.93;9.40;;;;;;;13.64;23.62;99767.75;5005992;28;98834;-69
2021/04/29 01:41:02;;;;;;;12.25;10.70;;;;;;;13.61;23.66;99762.38;5005796;28;97149;-69
2021/04/29 01:43:30;;;;;;;12.15;10.20;;;;;;;13.60;23.59;99761.53;5037527;27;98111;-69
2021/04/29 01:45:57;;;;;;;11.73;9.85;;;;;;;13.59;23.79;99774.88;5005409;28;99141;-69
2021/04/29 01:48:24;;;;;;;12.38;10.52;;;;;;;13.59;23.80;99778.44;5006003;28;99106;-68
2021/04/29 01:50:51;;;;;;;14.13;10.98;;;;;;;13.56;23.95;99786.50;5007479;28;97745;-68
2021/04/29 01:53:18;;;;;;;11.70;10.45;;;;;;;13.54;23.98;99772.25;5008893;28;97042;-70
2021/04/29 01:55:45;;;;;;;13.13;10.30;;;;;;;13.49;24.05;99770.50;5041632;27;98912;-69
2021/04/29 01:58:12;;;;;;;12.57;10.07;;;;;;;13.43;24.03;99755.41;5006385;28;100752;-69
2021/04/29 02:00:39;;;;;;;10.65;9.55;;;;;;;13.43;24.03;99744.72;5007597;28;97276;-69
2021/04/29 02:03:06;;;;;;;10.60;9.55;;;;;;;13.42;24.05;99734.94;5040575;27;96893;-69
2021/04/29 02:05:33;;;;;;;13.55;10.82;;;;;;;13.41;24.06;99732.25;5006096;28;99248;-68
2021/04/29 02:08:05;;;;;;;13.93;10.45;;;;;;;13.39;24.10;99724.25;5006880;28;97175;-69
2021/04/29 02:10:38;;;;;;;13.13;10.60;;;;;;;13.38;24.13;99725.16;5008887;28;97365;-69
2021/04/29 02:13:12;;;;;;;15.63;11.10;;;;;;;13.36;24.26;99724.28;5009232;28;97221;-69
2021/04/29 02:15:49;;;;;;;13.90;11.07;;;;;;;13.34;24.25;99720.72;5007913;28;96831;-70
2021/04/29 02:18:23;;;;;;;11.98;10.70;;;;;;;13.33;24.18;99728.75;5008741;28;97695;-69
2021/04/29 02:20:51;;;;;;;16.65;11.23;;;;;;;13.34;24.24;99726.06;5007031;28;119002;-69
2021/04/29 02:23:25;;;;;;;13.52;10.43;;;;;;;13.33;24.37;99720.75;5008878;28;96804;-69
2021/04/29 02:25:57;;;;;;;18.52;12.88;;;;;;;13.24;25.93;99710.13;5004579;28;100444;-70
2021/04/29 02:28:30;;;;;;;16.98;12.57;;;;;;;13.18;26.63;99703.91;5006944;28;98839;-70
2021/04/29 02:31:03;;;;;;;16.35;13.13;;;;;;;13.23;26.92;99695.88;5006937;28;97218;-68
2021/04/29 02:33:37;;;;;;;13.48;11.63;;;;;;;13.31;26.04;99685.13;5009187;28;97361;-69
2021/04/29 02:36:06;;;;;;;12.80;11.18;;;;;;;13.32;25.99;99677.09;5005880;28;127969;-69
2021/04/29 02:38:39;;;;;;;12.35;11.07;;;;;;;13.30;25.82;99668.22;5008632;28;98858;-69
2021/04/29 02:41:11;;;;;;;11.48;10.10;;;;;;;13.27;25.66;99664.69;5007579;28;97480;-68
2021/04/29 02:43:45;;;;;;;12.68;10.63;;;;;;;13.23;25.63;99663.81;5009096;28;97291;-69
2021/04/29 02:46:17;;;;;;;14.05;11.20;;;;;;;13.18;25.73;99660.31;5006265;28;97961;-70
2021/04/29 02:48:50;;;;;;;14.07;10.57;;;;;;;13.17;25.57;99652.31;5038581;27;96852;-69
2021/04/29 02:51:18;;;;;;;14.13;11.27;;;;;;;13.14;25.54;99648.75;5007956;28;116452;-70
2021/04/29 02:53:50;;;;;;;13.93;11.32;;;;;;;13.12;25.61;99645.19;5007770;28;97294;-70
2021/04/29 02:56:22;;;;;;;13.15;10.63;;;;;;;13.07;25.68;99647.03;5007748;28;97830;-70
2021/04/29 02:58:50;;;;;;;12.52;11.23;;;;;;;13.07;25.53;99657.72;5006853;28;128277;-70
2021/04/29 03:01:22;;;;;;;21.83;17.13;;;;;;;13.04;25.62;99660.38;5006140;28;97215;-71
2021/04/29 03:03:55;;;;;;;25.20;19.42;;;;;;;13.00;25.73;99660.44;5009284;28;97076;-68
2021/04/29 03:06:28;;;;;;;25.58;19.15;;;;;;;12.94;25.85;99660.44;5007963;28;98459;-69
2021/04/29 03:08:56;;;;;;;13.75;12.23;;;;;;;12.92;25.77;99648.88;5006824;28;126952;-68
2021/04/29 03:11:28;;;;;;;14.70;11.85;;;;;;;12.91;25.73;99647.09;5006091;28;96939;-69
2021/04/29 03:14:00;;;;;;;35.25;21.77;;;;;;;12.90;25.70;99647.97;5007599;28;97813;-70
2021/04/29 03:16:33;;;;;;;15.85;12.80;;;;;;;12.84;25.78;99632.88;5007299;28;97067;-69
2021/04/29 03:19:05;;;;;;;13.27;10.90;;;;;;;12.82;25.95;99645.34;5007381;27;97911;-70
2021/04/29 03:21:34;;;;;;;13.13;11.55;;;;;;;12.84;25.94;99658.69;5039264;27;116035;-70
2021/04/29 03:24:03;;;;;;;15.45;11.27;;;;;;;12.85;26.03;99655.16;5006722;28;117950;-67
2021/04/29 03:26:37;;;;;;;14.43;11.55;;;;;;;12.83;25.84;99647.16;5007828;28;98153;-69
2021/04/29 03:29:09;;;;;;;12.48;11.23;;;;;;;12.83;25.80;99632.91;4994407;28;97429;-69
2021/04/29 03:31:41;;;;;;;13.85;11.57;;;;;;;12.81;25.98;99626.69;5008377;28;97734;-68
2021/04/29 03:34:14;;;;;;;17.25;11.75;;;;;;;12.80;25.89;99630.25;5007879;28;97079;-68
2021/04/29 03:36:46;;;;;;;14.32;11.70;;;;;;;12.80;25.95;99640.94;5006187;28;97569;-68
2021/04/29 03:39:19;;;;;;;13.10;11.20;;;;;;;12.80;25.91;99648.94;5007840;28;97756;-69
2021/04/29 03:41:51;;;;;;;14.05;11.45;;;;;;;12.75;26.25;99664.97;5008185;28;97096;-69
2021/04/29 03:44:23;;;;;;;12.25;10.90;;;;;;;12.79;25.97;99649.81;5006840;28;97114;-68
2021/04/29 03:46:55;;;;;;;12.68;11.38;;;;;;;12.80;26.07;99657.81;5006164;28;98909;-69
2021/04/29 03:49:24;;;;;;;13.00;11.68;;;;;;;12.81;25.98;99656.06;5004772;28;126067;-69
2021/04/29 03:51:56;;;;;;;12.60;11.20;;;;;;;12.82;26.02;99649.84;5007895;28;96827;-68
2021/04/29 03:54:28;;;;;;;12.93;11.45;;;;;;;12.82;26.16;99652.50;5008313;27;97344;-69
2021/04/29 03:57:00;;;;;;;13.35;11.32;;;;;;;12.84;26.19;99658.69;5006790;28;98256;-73
2021/04/29 03:59:33;;;;;;;14.95;12.13;;;;;;;12.84;26.33;99658.69;5005381;28;97684;-69
2021/04/29 04:02:05;;;;;;;13.10;11.77;;;;;;;12.82;26.51;99664.03;5000402;28;97271;-67
2021/04/29 04:04:39;;;;;;;15.68;12.07;;;;;;;12.80;26.56;99672.97;5003430;28;96742;-69
2021/04/29 04:07:11;;;;;;;16.25;12.35;;;;;;;12.71;26.63;99675.69;5003659;28;98139;-69
2021/04/29 04:09:39;;;;;;;14.63;12.68;;;;;;;12.63;26.91;99682.84;5005807;28;128365;-69
2021/04/29 04:12:08;;;;;;;14.27;12.40;;;;;;;12.58;27.02;99676.66;5006907;28;117034;-68
2021/04/29 04:14:43;;;;;;;15.82;12.32;;;;;;;12.51;26.99;99669.56;5007399;28;97391;-69
2021/04/29 04:17:11;;;;;;;14.05;12.02;;;;;;;12.40;27.15;99668.72;5006391;28;127376;-70
2021/04/29 04:19:44;;;;;;;16.75;13.85;;;;;;;12.38;27.24;99667.84;5008068;28;97522;-69
2021/04/29 04:22:16;;;;;;;16.02;12.82;;;;;;;12.27;27.46;99675.88;5005553;28;96984;-69
2021/04/29 04:24:48;;;;;;;14.73;13.02;;;;;;;12.30;27.57;99690.97;5005234;28;97790;-68
2021/04/29 04:27:20;;;;;;;15.13;12.90;;;;;;;12.30;27.36;99690.97;5005635;28;97982;-69
2021/04/29 04:29:48;;;;;;;18.50;13.40;;;;;;;12.22;27.53;99692.78;5002933;27;126898;-69
2021/04/29 04:32:20;;;;;;;15.63;13.55;;;;;;;12.20;27.79;99686.56;5004900;28;97021;-70
2021/04/29 04:34:53;;;;;;;15.55;13.90;;;;;;;12.18;27.88;99692.78;5007817;28;96989;-69
2021/04/29 04:37:25;;;;;;;14.95;13.43;;;;;;;12.19;27.96;99704.34;5007531;28;98858;-70
2021/04/29 04:39:57;;;;;;;16.77;14.45;;;;;;;12.23;27.90;99695.44;5037715;27;99362;-70
2021/04/29 04:42:25;;;;;;;21.30;14.82;;;;;;;12.27;28.08;99696.31;5006210;28;117031;-71
2021/04/29 04:44:57;;;;;;;15.70;13.75;;;;;;;12.26;28.00;99699.88;5004332;28;97240;-70
2021/04/29 04:47:29;;;;;;;16.35;13.32;;;;;;;12.27;28.16;99696.31;5002912;28;98168;-70
2021/04/29 04:50:04;;;;;;;16.95;13.55;;;;;;;12.25;28.07;99688.34;5006627;28;100712;-69
2021/04/29 04:52:36;;;;;;;16.92;14.20;;;;;;;12.20;28.29;99683.91;5007360;28;96974;-70
2021/04/29 04:55:08;;;;;;;20.67;17.60;;;;;;;12.14;31.44;99688.31;5000273;28;97486;-70
2021/04/29 04:57:41;;;;;;;18.98;16.98;;;;;;;12.12;32.66;99689.22;5003570;28;97802;-71
2021/04/29 05:00:14;;;;;;;17.42;15.68;;;;;;;12.19;31.48;99688.34;5009300;28;96781;-70
2021/04/29 05:02:47;;;;;;;17.38;14.48;;;;;;;12.23;31.26;99689.22;5004385;28;98124;-71
2021/04/29 05:05:16;;;;;;;15.30;13.75;;;;;;;12.22;31.02;99676.78;5036995;27;117910;-71
2021/04/29 05:07:48;;;;;;;17.88;14.18;;;;;;;12.27;30.50;99678.56;5005796;28;97856;-69
2021/04/29 05:10:23;;;;;;;16.00;14.23;;;;;;;12.28;30.70;99685.66;5007617;28;96969;-70
2021/04/29 05:12:55;;;;;;;19.08;14.02;;;;;;;12.27;30.49;99675.88;5005706;27;97246;-70
2021/04/29 05:15:23;;;;;;;19.35;15.30;;;;;;;12.25;30.45;99676.78;5003826;28;118533;-70
2021/04/29 05:17:51;;;;;;;16.40;13.95;;;;;;;12.17;30.45;99672.34;5000233;28;127009;-70
2021/04/29 05:20:20;;;;;;;21.20;15.23;;;;;;;12.15;30.55;99682.09;5003241;28;129369;-71
2021/04/29 05:22:52;;;;;;;22.63;15.13;;;;;;;12.17;30.50;99683.03;5004804;28;97955;-70
2021/04/29 05:25:25;;;;;;;19.85;15.45;;;;;;;12.17;30.49;99675.03;5005750;28;96937;-71
2021/04/29 05:27:59;;;;;;;17.45;15.05;;;;;;;12.18;30.55;99670.59;5005671;28;99069;-71
2021/04/29 05:30:28;;;;;;;21.15;15.77;;;;;;;12.20;30.66;99663.44;5005307;28;126695;-70
2021/04/29 05:33:00;;;;;;;19.73;15.48;;;;;;;12.22;30.44;99667.00;5006711;28;97376;-71
2021/04/29 05:35:34;;;;;;;21.33;18.35;;;;;;;12.19;32.93;99667.00;5004642;28;98086;-71
2021/04/29 05:38:06;;;;;;;18.40;16.33;;;;;;;12.25;31.98;99661.66;5006357;28;97707;-71
2021/04/29 05:40:34;;;;;;;18.80;15.43;;;;;;;12.28;31.62;99644.75;5003402;28;126711;-70
2021/04/29 05:43:06;;;;;;;18.70;16.13;;;;;;;12.32;31.66;99651.84;5005535;28;97177;-71
2021/04/29 05:45:38;;;;;;;20.92;16.38;;;;;;;12.32;31.43;99652.75;5007350;28;97261;-70
2021/04/29 05:48:10;;;;;;;17.90;14.27;;;;;;;12.33;31.20;99642.97;5007073;28;98077;-71
2021/04/29 05:50:43;;;;;;;19.65;15.55;;;;;;;12.34;31.00;99634.97;5004842;28;98223;-71
2021/04/29 05:53:15;;;;;;;19.67;15.25;;;;;;;12.35;31.24;99644.72;5006180;28;97588;-71
2021/04/29 05:55:43;;;;;;;19.10;15.73;;;;;;;12.38;31.22;99650.06;5006176;28;118083;-71
2021/04/29 05:58:15;;;;;;;18.95;15.50;;;;;;;12.39;31.06;99650.94;5004590;28;97779;-71
2021/04/29 06:00:47;;;;;;;17.27;14.68;;;;;;;12.39;31.00;99654.50;5006645;28;97561;-69
2021/04/29 06:03:21;;;;;;;18.48;15.98;;;;;;;12.37;31.22;99666.94;5007182;28;97055;-69
2021/04/29 06:05:50;;;;;;;19.05;15.45;;;;;;;12.36;31.24;99674.97;5005102;28;116046;-70
2021/04/29 06:08:22;;;;;;;20.92;16.17;;;;;;;12.34;31.11;99682.97;5005818;28;98005;-69
2021/04/29 06:10:54;;;;;;;20.70;15.82;;;;;;;12.23;31.49;99699.88;5006968;27;96843;-70
2021/04/29 06:13:22;;;;;;;18.95;16.30;;;;;;;12.13;31.58;99713.22;5005100;27;117113;-70
2021/04/29 06:15:50;;;;;;;20.58;16.40;;;;;;;12.05;31.77;99720.31;5003161;28;116751;-70
2021/04/29 06:18:23;;;;;;;21.35;15.60;;;;;;;11.95;31.79;99726.59;5006488;28;96930;-71
2021/04/29 06:20:56;;;;;;;18.45;15.48;;;;;;;11.87;31.88;99720.34;5004510;28;97929;-70
2021/04/29 06:23:28;;;;;;;17.90;15.68;;;;;;;11.73;32.10;99727.50;5005716;28;97635;-71
2021/04/29 06:26:01;;;;;;;20.00;16.33;;;;;;;11.59;32.11;99721.28;5006183;28;97534;-70
2021/04/29 06:28:33;;;;;;;19.42;15.73;;;;;;;11.49;32.39;99730.13;5037027;27;99389;-70
2021/04/29 06:31:05;;;;;;;18.55;16.38;;;;;;;11.45;32.50;99717.69;5006648;28;97954;-71
2021/04/29 06:33:33;;;;;;;21.13;17.02;;;;;;;11.44;32.38;99721.25;5004317;28;118374;-70
2021/04/29 06:36:06;;;;;;;18.65;15.82;;;;;;;11.50;32.57;99715.94;5007016;28;97866;-70
2021/04/29 06:38:38;;;;;;;18.85;15.70;;;;;;;11.51;32.48;99723.03;5040941;27;98673;-71
2021/04/29 06:41:10;;;;;;;18.13;16.20;;;;;;;11.48;32.45;99716.81;5009904;28;98993;-70
2021/04/29 06:43:42;;;;;;;18.83;16.30;;;;;;;11.49;32.54;99711.50;5008910;28;96873;-71
2021/04/29 06:46:15;;;;;;;20.63;16.70;;;;;;;11.50;32.48;99705.28;5009504;28;97244;-71
2021/04/29 06:48:47;;;;;;;22.67;17.77;;;;;;;11.52;32.64;99708.84;5008404;28;97512;-71
2021/04/29 06:51:20;;;;;;;20.33;16.45;;;;;;;11.53;32.38;99715.03;5009789;28;98836;-70
2021/04/29 06:54:08;;;;;;;20.10;15.95;;;;;;;11.47;32.44;99709.75;5007521;28;96945;-70
2021/04/29 06:56:41;;;;;;;23.42;17.48;;;;;;;11.40;32.80;99708.81;5007860;28;97690;-71
2021/04/29 06:59:13;;;;;;;24.08;17.75;;;;;;;11.41;32.64;99717.72;5008278;28;98130;-73
2021/04/29 07:01:45;;;;;;;24.40;16.40;;;;;;;11.41;32.74;99721.28;5039557;27;97918;-70
2021/04/29 07:04:17;;;;;;;21.92;18.05;;;;;;;11.43;32.68;99714.19;5008712;28;97017;-71
2021/04/29 07:06:50;;;;;;;19.70;16.90;;;;;;;11.49;32.69;99703.50;5009938;28;96907;-70
2021/04/29 07:09:22;;;;;;;19.60;16.77;;;;;;;11.52;32.60;99702.63;5009076;28;97260;-70
2021/04/29 07:11:50;;;;;;;20.27;16.13;;;;;;;11.51;32.71;99709.72;5039534;27;128283;-70
2021/04/29 07:14:22;;;;;;;19.92;16.77;;;;;;;11.45;32.66;99711.50;5008771;27;97639;-70
2021/04/29 07:16:55;;;;;;;19.25;17.17;;;;;;;11.31;32.93;99716.81;5040274;27;97542;-70
2021/04/29 07:19:27;;;;;;;20.20;16.55;;;;;;;11.16;33.23;99714.97;5008009;28;97547;-70
2021/04/29 07:21:56;;;;;;;25.00;17.63;;;;;;;11.11;33.11;99705.22;5007709;28;127143;-70
2021/04/29 07:24:28;;;;;;;24.90;19.25;;;;;;;11.16;33.27;99703.44;5008226;28;96723;-71
2021/04/29 07:27:01;;;;;;;23.85;17.55;;;;;;;11.19;33.20;99703.47;5007124;28;97708;-70
2021/04/29 07:29:34;;;;;;;24.17;17.80;;;;;;;11.23;33.27;99699.03;5007368;28;98259;-71
2021/04/29 07:32:03;;;;;;;26.38;18.15;;;;;;;11.29;33.14;99697.25;5007524;28;127167;-70
2021/04/29 07:34:37;;;;;;;30.85;23.80;;;;;;;11.34;33.15;99686.63;5008681;28;96856;-71
2021/04/29 07:37:10;;;;;;;23.80;19.40;;;;;;;11.42;33.11;99680.41;5007393;28;97291;-71
2021/04/29 07:39:38;;;;;;;28.25;20.75;;;;;;;11.51;33.07;99685.75;5005961;28;126928;-71
2021/04/29 07:42:10;;;;;;;20.67;18.13;;;;;;;11.57;33.33;99687.53;5009087;28;98129;-71
2021/04/29 07:44:38;;;;;;;29.08;23.23;;;;;;;11.61;33.25;99681.31;5007821;28;118098;-70
2021/04/29 07:47:07;;;;;;;31.30;23.23;;;;;;;11.70;33.07;99682.19;5006053;28;118373;-71
2021/04/29 07:49:40;;;;;;;23.13;18.30;;;;;;;11.79;33.00;99697.28;5005893;28;99030;-71
2021/04/29 07:52:13;;;;;;;26.08;18.20;;;;;;;11.87;33.01;99703.50;5008758;28;98163;-71
2021/04/29 07:54:45;;;;;;;21.58;17.88;;;;;;;11.92;33.07;99701.72;5006959;28;97441;-71
2021/04/29 07:57:19;;;;;;;20.38;17.83;;;;;;;11.91;32.79;99706.16;5009205;28;97273;-70
2021/04/29 07:59:52;;;;;;;22.38;19.05;;;;;;;11.90;33.15;99701.72;5007932;28;96986;-70
2021/04/29 08:02:24;;;;;;;22.05;18.48;;;;;;;11.99;33.19;99688.38;5009310;28;97982;-71
2021/04/29 08:04:56;;;;;;;22.80;18.13;;;;;;;12.12;32.96;99700.78;5009686;28;97760;-70
2021/04/29 08:07:31;;;;;;;20.05;17.95;;;;;;;12.20;32.85;99699.91;5008805;28;97041;-71
2021/04/29 08:09:59;;;;;;;23.88;18.83;;;;;;;12.22;33.00;99698.13;5006650;28;125919;-71
2021/04/29 08:12:28;;;;;;;22.13;19.08;;;;;;;12.25;32.93;99693.66;5007504;28;129116;-71
2021/04/29 08:15:00;;;;;;;24.65;19.58;;;;;;;12.37;32.85;99692.72;5006895;27;96654;-71
2021/04/29 08:17:33;;;;;;;22.83;18.63;;;;;;;12.46;32.55;99684.69;5008474;28;97309;-71
2021/04/29 08:20:07;;;;;;;23.65;19.08;;;;;;;12.51;32.46;99683.78;5006312;28;98978;-70
2021/04/29 08:22:40;;;;;;;22.98;18.90;;;;;;;12.54;32.50;99696.22;5007982;28;98915;-70
2021/04/29 08:25:12;;;;;;;21.98;18.20;;;;;;;12.56;33.08;99699.78;5038850;27;97194;-71
2021/04/29 08:27:44;;;;;;;21.20;18.75;;;;;;;12.66;32.63;99693.50;5039367;27;97614;-70
2021/04/29 08:30:17;;;;;;;23.65;19.00;;;;;;;12.74;32.57;99700.59;5006913;28;98238;-70
2021/04/29 08:32:49;;;;;;;24.60;19.25;;;;;;;12.78;32.42;99696.97;5008770;28;97823;-71
2021/04/29 08:35:18;;;;;;;20.67;18.45;;;;;;;12.83;32.54;99703.22;5007087;28;118067;-71
2021/04/29 08:37:47;;;;;;;21.60;19.23;;;;;;;12.86;32.45;99702.28;5007194;28;116900;-70
2021/04/29 08:40:20;;;;;;;28.25;23.90;;;;;;;12.88;34.27;99706.75;5006547;28;97728;-71
2021/04/29 08:42:52;;;;;;;27.23;24.33;;;;;;;12.97;34.95;99719.13;5010789;28;98065;-71
2021/04/29 08:45:21;;;;;;;27.23;24.42;;;;;;;13.06;35.49;99716.44;5038664;27;117253;-71
2021/04/29 08:47:55;;;;;;;26.27;23.60;;;;;;;13.14;35.55;99731.56;5006435;28;97197;-70
2021/04/29 08:50:25;;;;;;;26.70;23.75;;;;;;;13.28;35.69;99723.44;5005190;28;125519;-71
2021/04/29 08:52:58;;;;;;;23.15;20.15;;;;;;;13.45;34.76;99728.66;5007723;28;98696;-71
2021/04/29 08:55:30;;;;;;;22.05;19.52;;;;;;;13.51;34.28;99729.53;5008741;28;96791;-71
2021/04/29 08:58:03;;;;;;;21.85;19.50;;;;;;;13.58;33.92;99736.59;5006345;28;97151;-71
2021/04/29 09:00:31;;;;;;;21.38;19.08;;;;;;;13.61;33.52;99731.22;5007551;28;125532;-71
2021/04/29 09:03:04;;;;;;;24.75;21.10;;;;;;;13.62;33.32;99724.94;5009793;28;97513;-71
2021/04/29 09:05:36;;;;;;;24.42;19.25;;;;;;;13.63;33.24;99729.41;5008725;28;97641;-71
2021/04/29 09:08:09;;;;;;;23.48;19.75;;;;;;;13.65;33.08;99730.28;5040203;27;97016;-69
2021/04/29 09:10:44;;;;;;;23.45;19.67;;;;;;;13.68;32.96;99727.59;5007435;28;97176;-71
2021/04/29 09:13:18;;;;;;;24.88;21.45;;;;;;;13.68;32.81;99727.59;5006619;28;97816;-70
2021/04/29 09:15:47;;;;;;;23.25;20.55;;;;;;;13.69;32.84;99734.72;5022164;27;116924;-70
2021/04/29 09:18:20;;;;;;;26.05;20.73;;;;;;;13.67;32.84;99725.81;5007676;28;96887;-71
2021/04/29 09:20:54;;;;;;;29.20;21.77;;;;;;;13.64;32.82;99728.50;5007657;28;97162;-70
2021/04/29 09:23:24;;;;;;;25.63;20.77;;;;;;;13.60;32.83;99720.53;5005707;28;128684;-71
2021/04/29 09:25:54;;;;;;;25.33;21.65;;;;;;;13.62;32.76;99732.09;5008199;28;118946;-70
2021/04/29 09:28:36;;;;;;;25.08;21.77;;;;;;;13.64;33.43;99725.81;5008342;28;116918;-70
2021/04/29 09:31:11;;;;;;;23.90;20.85;;;;;;;13.67;32.81;99720.47;5008090;28;97744;-70
2021/04/29 09:33:45;;;;;;;25.90;21.83;;;;;;;13.72;32.67;99729.34;5007107;28;98002;-70
2021/04/29 09:36:22;;;;;;;25.35;21.05;;;;;;;13.79;32.50;99739.09;5039563;27;97505;-70
2021/04/29 09:38:56;;;;;;;28.85;22.85;;;;;;;13.74;33.13;99737.34;5008631;28;97019;-70
2021/04/29 09:41:31;;;;;;;26.75;22.30;;;;;;;13.72;32.60;99734.69;5006630;28;97990;-70
2021/04/29 09:44:01;;;;;;;25.77;21.45;;;;;;;13.75;32.69;99733.78;5005612;28;126818;-70
2021/04/29 09:46:40;;;;;;;27.00;20.52;;;;;;;13.78;33.18;99739.09;5007988;28;116188;-71
2021/04/29 09:49:17;;;;;;;26.73;19.85;;;;;;;13.81;32.62;99739.09;5007396;28;97621;-71
2021/04/29 09:51:47;;;;;;;24.63;20.17;;;;;;;13.78;32.45;99742.66;5006236;28;127948;-70
2021/04/29 09:54:24;;;;;;;23.17;19.60;;;;;;;13.79;32.86;99747.13;5038066;27;96955;-70
2021/04/29 09:56:59;;;;;;;23.92;19.42;;;;;;;13.90;32.20;99739.91;5006042;28;96910;-70
2021/04/29 09:59:33;;;;;;;28.27;21.05;;;;;;;13.94;32.06;99741.66;5006411;28;97279;-69
2021/04/29 10:02:06;;;;;;;26.35;19.70;;;;;;;13.98;32.12;99748.75;5006473;28;98322;-70
2021/04/29 10:04:40;;;;;;;24.63;20.60;;;;;;;14.00;32.01;99746.97;5006583;28;96760;-71
2021/04/29 10:07:09;;;;;;;25.45;19.42;;;;;;;13.96;32.12;99752.34;5005783;28;116433;-71
2021/04/29 10:09:43;;;;;;;22.38;18.63;;;;;;;13.96;31.95;99749.66;5007060;28;96840;-69
2021/04/29 10:12:17;;;;;;;24.05;19.02;;;;;;;13.90;32.01;99761.31;5011414;28;97116;-70
2021/04/29 10:14:46;;;;;;;23.10;18.95;;;;;;;13.85;32.11;99755.13;5024511;27;127865;-69
2021/04/29 10:17:20;;;;;;;23.13;18.50;;;;;;;13.87;31.95;99745.28;5010185;28;97186;-70
2021/04/29 10:19:53;;;;;;;22.35;17.83;;;;;;;13.93;31.89;99752.38;5011008;28;97031;-71
2021/04/29 10:22:23;;;;;;;23.48;17.58;;;;;;;13.95;31.91;99743.41;5007101;28;128081;-71
2021/04/29 10:24:55;;;;;;;20.63;17.35;;;;;;;13.95;31.71;99758.59;5040463;27;98231;-71
2021/04/29 10:27:29;;;;;;;22.17;17.50;;;;;;;13.95;31.76;99747.91;5010823;28;97660;-70
2021/04/29 10:30:03;;;;;;;23.50;18.60;;;;;;;13.98;31.63;99751.44;5010222;28;96781;-70
2021/04/29 10:32:38;;;;;;;21.80;18.15;;;;;;;14.02;31.78;99754.97;5040717;27;97625;-69
2021/04/29 10:35:16;;;;;;;24.50;18.40;;;;;;;14.09;31.74;99756.69;5007897;28;97618;-71
2021/04/29 10:37:55;;;;;;;20.42;16.73;;;;;;;14.12;32.06;99745.94;5008479;28;117978;-70
2021/04/29 10:40:32;;;;;;;18.95;16.10;;;;;;;14.14;32.30;99760.19;5008881;28;117077;-70
2021/04/29 10:43:05;;;;;;;19.58;17.05;;;;;;;14.12;31.43;99756.63;5008801;28;97965;-70
2021/04/29 10:45:37;;;;;;;19.27;15.60;;;;;;;14.12;31.61;99745.94;5008482;28;96721;-70
2021/04/29 10:48:10;;;;;;;21.88;19.58;;;;;;;14.05;32.70;99747.78;5007644;28;97246;-70
2021/04/29 10:50:44;;;;;;;19.02;16.27;;;;;;;14.15;32.45;99757.50;5008247;28;97589;-71
2021/04/29 10:53:27;;;;;;;19.95;16.48;;;;;;;14.23;32.79;99765.44;5007783;28;97559;-71
2021/04/29 10:56:02;;;;;;;17.98;15.98;;;;;;;14.19;32.02;99763.69;5009261;28;97841;-70
2021/04/29 10:58:30;;;;;;;17.58;15.68;;;;;;;14.25;32.00;99768.09;5007829;28;117960;-71
2021/04/29 11:01:06;;;;;;;20.63;16.85;;;;;;;14.32;31.84;99770.72;5039742;27;97372;-69
2021/04/29 11:03:40;;;;;;;23.20;20.45;;;;;;;14.25;33.24;99768.09;5011392;28;97779;-70
2021/04/29 11:06:16;;;;;;;25.98;20.15;;;;;;;14.31;33.20;99768.06;5009266;28;125915;-70
2021/04/29 11:08:48;;;;;;;24.83;20.55;;;;;;;14.30;33.38;99774.31;5046535;27;117329;-70
2021/04/29 11:11:29;;;;;;;20.38;16.95;;;;;;;14.35;33.49;99764.44;5026638;27;117592;-70
2021/04/29 11:14:04;;;;;;;18.30;16.35;;;;;;;14.33;32.70;99759.13;5009125;28;97665;-70
2021/04/29 11:16:44;;;;;;;19.23;15.38;;;;;;;14.35;33.17;99760.00;5013041;28;96817;-70
2021/04/29 11:19:40;;;;;;;19.27;16.83;;;;;;;14.41;32.71;99742.97;5007803;28;97945;-70
2021/04/29 11:22:14;;;;;;;19.30;17.05;;;;;;;14.36;32.40;99755.50;5008821;28;97593;-70
2021/04/29 11:24:46;;;;;;;20.48;16.85;;;;;;;14.36;32.39;99742.13;5008406;28;126911;-70
2021/04/29 11:27:29;;;;;;;25.43;22.77;;;;;;;14.32;33.67;99735.03;5037663;27;96938;-70
2021/04/29 11:30:00;;;;;;;22.25;17.17;;;;;;;14.49;33.00;99735.72;5009884;28;116099;-70
2021/04/29 11:32:32;;;;;;;23.15;17.20;;;;;;;14.59;32.60;99740.13;5009197;28;117938;-70
2021/04/29 11:35:07;;;;;;;17.60;15.57;;;;;;;14.67;32.34;99738.22;5007690;28;97712;-70
2021/04/29 11:37:40;;;;;;;19.35;14.23;;;;;;;14.74;32.26;99734.56;5009491;27;97699;-70